NM28 weather

Beckett Farm Airport
Tularosa, New Mexico, United States

Public forecast

Using degrees Fahrenheit for public forecast. Weather courtesy of forecast.io.

Closest aviation weather report (METAR) to Beckett Farm Airport

Closest report is Holloman Air Force Base, 13.0 nm (24.0 km) SSW. Retrieved 2020/01/28 21:58 UTC (18 minutes ago):

KHMN 282158Z AUTO 35008KT 10SM CLR 13/M10 A3011 RMK AO2 SLP176 T01251099

Closest aviation forecast (TAF) to Beckett Farm Airport

Closest forecast is Holloman Air Force Base, 13.0 nm (24.0 km) SSW. Retrieved 2020/01/28 17:12 UTC (5 hours ago):

TAF KHMN 281705Z 2817/2923 32010G15KT 9999 FEW150 QNH3004INS TEMPO 2817/2819 31010G20KT BECMG 2900/2901 VRB06KT 9999 SKC QNH3006INS TX14/2821Z TNM02/2914Z